createdAt,value
2023-01-15T00:00:01.595Z,931.02
2023-01-15T00:00:33.307Z,931.32
2023-01-15T00:01:03.445Z,931.32
2023-01-15T00:01:34.373Z,931.22
2023-01-15T00:02:05.112Z,931.22
2023-01-15T00:02:36.305Z,931.12
2023-01-15T00:03:07.332Z,931.12
2023-01-15T00:03:38.309Z,931.12
2023-01-15T00:04:09.142Z,931.22
2023-01-15T00:04:40.019Z,931.22
2023-01-15T00:05:11.241Z,931.02
2023-01-15T00:05:43.241Z,931.02
2023-01-15T00:06:13.425Z,931.02
2023-01-15T00:06:44.307Z,931.02
2023-01-15T00:07:15.109Z,931.32
2023-01-15T00:07:46.159Z,931.32
2023-01-15T00:08:17.287Z,931.12
2023-01-15T00:08:48.382Z,931.12
2023-01-15T00:09:19.408Z,931.02
2023-01-15T00:09:49.912Z,931.02
2023-01-15T00:10:21.154Z,931.02
2023-01-15T00:10:53.255Z,931.02
2023-01-15T00:11:23.331Z,930.81
2023-01-15T00:11:54.104Z,930.81
2023-01-15T00:12:25.345Z,931.12
2023-01-15T00:12:56.398Z,931.12
2023-01-15T00:13:27.077Z,931.02
2023-01-15T00:13:58.025Z,931.02
2023-01-15T00:14:29.292Z,930.92
2023-01-15T00:15:00.258Z,930.92
2023-01-15T00:15:31.442Z,931.02
2023-01-15T00:16:03.351Z,931.02
2023-01-15T00:16:33.319Z,930.92
2023-01-15T00:17:04.082Z,930.92
2023-01-15T00:17:35.159Z,931.02
2023-01-15T00:18:06.291Z,931.02
2023-01-15T00:18:37.137Z,931.02
2023-01-15T00:19:08.395Z,931.02
2023-01-15T00:19:39.308Z,931.02
2023-01-15T00:20:10.352Z,931.02
2023-01-15T00:20:41.364Z,931.02
2023-01-15T00:21:13.130Z,931.22
2023-01-15T00:21:43.280Z,931.22
2023-01-15T00:22:14.222Z,931.02
2023-01-15T00:22:45.287Z,931.02
2023-01-15T00:23:16.238Z,930.81
2023-01-15T00:23:47.232Z,930.81
2023-01-15T00:24:18.332Z,931.12
2023-01-15T00:24:49.319Z,931.12
2023-01-15T00:25:20.123Z,930.81
2023-01-15T00:25:51.173Z,930.81
2023-01-15T00:26:23.338Z,931.02
2023-01-15T00:26:53.663Z,931.02
2023-01-15T00:27:24.235Z,930.92
2023-01-15T00:27:55.282Z,930.92
2023-01-15T00:28:26.361Z,931.02
2023-01-15T00:28:57.200Z,931.02
2023-01-15T00:29:28.330Z,931.02
2023-01-15T00:29:59.343Z,931.02
2023-01-15T00:30:30.308Z,931.02
2023-01-15T00:31:01.379Z,931.02
2023-01-15T00:31:33.469Z,930.92
2023-01-15T00:32:03.398Z,930.92
2023-01-15T00:32:34.091Z,931.12
2023-01-15T00:33:05.082Z,931.12
2023-01-15T00:33:36.177Z,931.02
2023-01-15T00:34:07.349Z,931.02
2023-01-15T00:34:38.360Z,931.12
2023-01-15T00:35:09.201Z,931.02
2023-01-15T00:35:40.269Z,931.02
2023-01-15T00:36:11.359Z,931.12
2023-01-15T00:36:43.371Z,931.12
2023-01-15T00:37:13.077Z,931.02
2023-01-15T00:37:44.120Z,931.02
2023-01-15T00:38:15.137Z,931.02
2023-01-15T00:38:46.231Z,931.02
2023-01-15T00:39:17.257Z,931.02
2023-01-15T00:39:48.101Z,931.02
2023-01-15T00:40:19.276Z,930.92
2023-01-15T00:40:49.995Z,930.92
2023-01-15T00:41:21.161Z,930.81
2023-01-15T00:41:53.039Z,930.81
2023-01-15T00:42:23.320Z,930.92
2023-01-15T00:42:54.823Z,930.92
2023-01-15T00:43:25.156Z,930.81
2023-01-15T00:43:56.117Z,930.81
2023-01-15T00:44:27.178Z,930.81
2023-01-15T00:44:58.309Z,930.81
2023-01-15T00:45:29.420Z,930.81
2023-01-15T00:46:00.264Z,930.81
2023-01-15T00:46:31.365Z,930.61
2023-01-15T00:47:03.246Z,930.61
2023-01-15T00:47:33.396Z,930.81
2023-01-15T00:48:04.437Z,930.81
2023-01-15T00:48:35.147Z,930.92
2023-01-15T00:49:06.190Z,930.92
2023-01-15T00:49:37.158Z,930.92
2023-01-15T00:50:08.060Z,930.92
2023-01-15T00:50:39.224Z,930.71
2023-01-15T00:51:10.236Z,930.71
2023-01-15T00:51:41.437Z,930.71
2023-01-15T00:52:13.263Z,930.81
2023-01-15T00:52:43.364Z,930.81
2023-01-15T00:53:14.369Z,931.02
2023-01-15T00:53:45.265Z,931.02
2023-01-15T00:54:16.243Z,930.71
2023-01-15T00:54:47.175Z,930.71
2023-01-15T00:55:18.458Z,930.81
2023-01-15T00:55:49.343Z,930.81
2023-01-15T00:56:20.092Z,931.02
2023-01-15T00:56:51.448Z,931.02
2023-01-15T00:57:23.254Z,930.71
2023-01-15T00:57:53.327Z,930.71
2023-01-15T00:58:24.036Z,930.81
2023-01-15T00:58:55.320Z,930.81
2023-01-15T00:59:26.309Z,930.61
2023-01-15T00:59:57.377Z,930.61
2023-01-15T01:00:30.947Z,930.61
2023-01-15T01:00:59.362Z,930.61
2023-01-15T01:01:30.347Z,930.61
2023-01-15T01:02:01.438Z,930.61
2023-01-15T01:02:33.492Z,930.51
2023-01-15T01:03:03.313Z,930.51
2023-01-15T01:03:34.233Z,930.61
2023-01-15T01:04:05.095Z,930.61
2023-01-15T01:04:36.294Z,930.51
2023-01-15T01:05:07.231Z,930.51
2023-01-15T01:05:38.437Z,930.41
2023-01-15T01:06:09.326Z,930.51
2023-01-15T01:06:40.486Z,930.51
2023-01-15T01:07:11.408Z,930.61
2023-01-15T01:07:43.139Z,930.61
2023-01-15T01:08:13.380Z,930.81
2023-01-15T01:08:44.333Z,930.81
2023-01-15T01:09:15.260Z,930.81
2023-01-15T01:09:46.133Z,930.81
2023-01-15T01:10:17.105Z,930.61
2023-01-15T01:10:48.351Z,930.61
2023-01-15T01:11:19.303Z,930.61
2023-01-15T01:11:50.449Z,930.61
2023-01-15T01:12:21.114Z,930.51
2023-01-15T01:12:53.449Z,930.51
2023-01-15T01:13:23.461Z,930.51
2023-01-15T01:13:54.401Z,930.51
2023-01-15T01:14:25.250Z,930.61
2023-01-15T01:14:56.192Z,930.61
2023-01-15T01:15:30.126Z,930.81
2023-01-15T01:15:58.393Z,930.81
2023-01-15T01:16:29.441Z,930.61
2023-01-15T01:17:00.269Z,930.61
2023-01-15T01:17:31.232Z,930.41
2023-01-15T01:18:03.377Z,930.41
2023-01-15T01:18:33.416Z,930.31
2023-01-15T01:19:04.375Z,930.31
2023-01-15T01:19:35.107Z,930.41
2023-01-15T01:20:06.182Z,930.41
2023-01-15T01:20:37.375Z,930.51
2023-01-15T01:21:08.412Z,930.51
2023-01-15T01:21:39.233Z,930.31
2023-01-15T01:22:10.248Z,930.31
2023-01-15T01:22:41.309Z,930.31
2023-01-15T01:23:13.333Z,930.31
2023-01-15T01:23:43.335Z,930.31
2023-01-15T01:24:14.282Z,930.41
2023-01-15T01:24:45.387Z,930.41
2023-01-15T01:25:16.310Z,930.24
2023-01-15T01:25:47.372Z,930.24
2023-01-15T01:26:18.373Z,930.41
2023-01-15T01:26:50.130Z,930.41
2023-01-15T01:27:20.223Z,930.31
2023-01-15T01:27:51.394Z,930.31
2023-01-15T01:28:23.449Z,930.24
2023-01-15T01:28:53.391Z,930.24
2023-01-15T01:29:24.379Z,930.24
2023-01-15T01:29:55.397Z,930.24
2023-01-15T01:30:29.172Z,930.41
2023-01-15T01:30:57.137Z,930.41
2023-01-15T01:31:28.290Z,930.31
2023-01-15T01:31:59.322Z,930.31
2023-01-15T01:32:30.325Z,930.31
2023-01-15T01:33:01.199Z,930.31
2023-01-15T01:33:33.268Z,930.31
2023-01-15T01:34:03.557Z,930.31
2023-01-15T01:34:34.423Z,930.24
2023-01-15T01:35:05.197Z,930.24
2023-01-15T01:35:36.295Z,930.24
2023-01-15T01:36:07.283Z,930.24
2023-01-15T01:36:38.116Z,930.41
2023-01-15T01:37:09.333Z,930.31
2023-01-15T01:37:40.308Z,930.31
2023-01-15T01:38:11.010Z,930.24
2023-01-15T01:38:43.319Z,930.24
2023-01-15T01:39:13.405Z,930.31
2023-01-15T01:39:44.190Z,930.31
2023-01-15T01:40:15.146Z,930.04
2023-01-15T01:40:50.782Z,930.04
2023-01-15T01:41:18.638Z,930.14
2023-01-15T01:41:48.871Z,930.14
2023-01-15T01:42:19.664Z,930.24
2023-01-15T01:42:50.370Z,930.24
2023-01-15T01:43:21.566Z,930.04
2023-01-15T01:43:53.312Z,930.04
2023-01-15T01:44:23.436Z,930.04
2023-01-15T01:44:54.649Z,930.04
2023-01-15T01:45:28.840Z,930.31
2023-01-15T01:45:56.826Z,930.31
2023-01-15T01:46:27.454Z,930.24
2023-01-15T01:46:58.649Z,930.24
2023-01-15T01:47:29.797Z,930.24
2023-01-15T01:48:00.458Z,930.24
2023-01-15T01:48:31.268Z,930.04
2023-01-15T01:49:03.322Z,930.04
2023-01-15T01:50:31.277Z,930.04
2023-01-15T01:51:01.961Z,930.04
2023-01-15T01:51:42.295Z,930.04
2023-01-15T01:52:13.018Z,930.04
2023-01-15T01:52:39.518Z,930.14
2023-01-15T01:53:10.152Z,930.04
2023-01-15T01:53:41.580Z,930.04
2023-01-15T01:54:13.592Z,929.93
2023-01-15T01:54:43.573Z,929.93
2023-01-15T01:55:14.277Z,929.53
2023-01-15T01:55:45.620Z,929.53
2023-01-15T01:56:16.423Z,929.93
2023-01-15T01:56:47.407Z,929.93
2023-01-15T01:57:18.666Z,929.93
2023-01-15T01:57:49.328Z,929.93
2023-01-15T01:58:20.454Z,929.83
2023-01-15T01:58:51.816Z,929.83
2023-01-15T01:59:23.427Z,929.93
2023-01-15T01:59:53.178Z,929.93
2023-01-15T02:00:30.433Z,929.83
2023-01-15T02:00:56.148Z,929.83
2023-01-15T02:01:26.706Z,929.83
2023-01-15T02:01:57.474Z,929.83
2023-01-15T02:02:28.289Z,929.93
2023-01-15T02:02:59.305Z,929.93
2023-01-15T02:03:30.572Z,929.73
2023-01-15T02:04:01.189Z,929.73
2023-01-15T02:04:33.438Z,929.83
2023-01-15T02:05:03.381Z,929.83
2023-01-15T02:05:34.314Z,929.93
2023-01-15T02:06:05.440Z,929.93
2023-01-15T02:06:36.133Z,929.63
2023-01-15T02:07:07.299Z,929.63
2023-01-15T02:07:38.281Z,929.53
2023-01-15T02:08:09.518Z,929.63
2023-01-15T02:08:40.506Z,929.63
2023-01-15T02:09:11.305Z,929.63
2023-01-15T02:09:43.335Z,929.63
2023-01-15T02:10:13.560Z,929.63
2023-01-15T02:10:44.375Z,929.63
2023-01-15T02:11:15.277Z,929.53
2023-01-15T02:11:46.263Z,929.53
2023-01-15T02:12:16.906Z,929.63
2023-01-15T02:12:48.378Z,929.63
2023-01-15T02:13:19.325Z,929.63
2023-01-15T02:13:50.378Z,929.63
2023-01-15T02:14:21.104Z,929.73
2023-01-15T02:14:53.359Z,929.73
2023-01-15T02:15:26.027Z,929.63
2023-01-15T02:15:54.182Z,929.63
2023-01-15T02:16:25.539Z,929.32
2023-01-15T02:16:56.257Z,929.32
2023-01-15T02:17:27.446Z,929.53
2023-01-15T02:17:58.233Z,929.53
2023-01-15T02:18:29.431Z,929.32
2023-01-15T02:19:00.254Z,929.32
2023-01-15T02:19:31.336Z,929.32
2023-01-15T02:20:03.378Z,929.32
2023-01-15T02:20:33.303Z,929.53
2023-01-15T02:21:04.255Z,929.53
2023-01-15T02:21:35.405Z,929.53
2023-01-15T02:22:06.204Z,929.53
2023-01-15T02:22:37.240Z,929.53
2023-01-15T02:23:08.442Z,929.53
2023-01-15T02:23:39.307Z,929.73
2023-01-15T02:24:10.476Z,929.53
2023-01-15T02:24:41.411Z,929.53
2023-01-15T02:25:13.292Z,929.53
2023-01-15T02:25:43.334Z,929.53
2023-01-15T02:26:14.414Z,929.22
2023-01-15T02:26:45.323Z,929.22
2023-01-15T02:27:16.162Z,929.43
2023-01-15T02:27:47.436Z,929.43
2023-01-15T02:28:18.504Z,929.43
2023-01-15T02:28:49.480Z,929.43
2023-01-15T02:29:20.406Z,929.32
2023-01-15T02:29:51.095Z,929.32
2023-01-15T02:30:26.331Z,929.63
2023-01-15T02:30:53.506Z,929.63
2023-01-15T02:31:24.503Z,929.32
2023-01-15T02:31:55.308Z,929.32
2023-01-15T02:32:26.400Z,929.43
2023-01-15T02:32:57.456Z,929.43
2023-01-15T02:33:28.445Z,929.53
2023-01-15T02:33:59.156Z,929.53
2023-01-15T02:34:30.292Z,929.53
2023-01-15T02:35:01.358Z,929.53
2023-01-15T02:35:33.340Z,929.53
2023-01-15T02:36:03.397Z,929.53
2023-01-15T02:36:34.455Z,929.22
2023-01-15T02:37:05.469Z,929.22
2023-01-15T02:37:36.181Z,929.53
2023-01-15T02:38:07.517Z,929.53
2023-01-15T02:38:38.531Z,929.53
2023-01-15T02:39:09.512Z,929.32
2023-01-15T02:39:40.395Z,929.32
2023-01-15T02:40:11.460Z,929.22
2023-01-15T02:40:43.486Z,929.22
2023-01-15T02:41:13.365Z,929.22
2023-01-15T02:41:44.304Z,929.22
2023-01-15T02:42:15.375Z,929.22
2023-01-15T02:42:46.559Z,929.22
2023-01-15T02:43:17.467Z,929.22
2023-01-15T02:43:48.333Z,929.22
2023-01-15T02:44:19.325Z,929.22
2023-01-15T02:44:50.419Z,929.22
2023-01-15T02:45:24.028Z,929.12
2023-01-15T02:45:53.603Z,929.12
2023-01-15T02:46:23.602Z,929.02
2023-01-15T02:46:54.418Z,929.02
2023-01-15T02:47:25.512Z,929.12
2023-01-15T02:47:56.581Z,929.12
2023-01-15T02:48:27.429Z,929.12
2023-01-15T02:48:58.517Z,929.12
2023-01-15T02:49:29.393Z,929.32
2023-01-15T02:50:00.378Z,929.32
2023-01-15T02:50:31.447Z,929.12
2023-01-15T02:51:03.397Z,929.12
2023-01-15T02:51:33.395Z,929.12
2023-01-15T02:52:04.412Z,929.12
2023-01-15T02:52:35.626Z,929.12
2023-01-15T02:53:06.194Z,929.12
2023-01-15T02:53:37.379Z,929.12
2023-01-15T02:54:08.377Z,929.12
2023-01-15T02:54:39.575Z,929.12
2023-01-15T02:55:10.505Z,928.92
2023-01-15T02:55:41.472Z,928.92
2023-01-15T02:56:13.469Z,929.32
2023-01-15T02:56:43.232Z,929.32
2023-01-15T02:57:14.404Z,928.92
2023-01-15T02:57:45.402Z,928.92
2023-01-15T02:58:16.308Z,929.02
2023-01-15T02:58:47.653Z,929.02
2023-01-15T02:59:18.513Z,929.12
2023-01-15T02:59:49.287Z,929.12
2023-01-15T03:00:23.105Z,929.22
2023-01-15T03:00:51.270Z,929.22
2023-01-15T03:01:23.442Z,928.92
2023-01-15T03:01:53.562Z,928.92
2023-01-15T03:02:24.461Z,929.22
2023-01-15T03:02:55.424Z,929.22
2023-01-15T03:03:26.403Z,929.02
2023-01-15T03:03:57.279Z,929.02
2023-01-15T03:04:28.150Z,929.12
2023-01-15T03:04:59.346Z,929.12
2023-01-15T03:05:30.401Z,928.92
2023-01-15T03:06:01.411Z,928.92
2023-01-15T03:06:33.406Z,929.02
2023-01-15T03:07:03.238Z,929.02
2023-01-15T03:07:34.304Z,928.82
2023-01-15T03:08:05.289Z,928.82
2023-01-15T03:08:36.170Z,929.02
2023-01-15T03:09:07.267Z,929.02
2023-01-15T03:09:38.267Z,928.82
2023-01-15T03:10:09.465Z,928.61
2023-01-15T03:10:40.376Z,928.61
2023-01-15T03:11:11.240Z,928.92
2023-01-15T03:11:43.360Z,928.92
2023-01-15T03:12:13.312Z,928.82
2023-01-15T03:12:44.461Z,928.82
2023-01-15T03:13:15.430Z,928.82
2023-01-15T03:13:46.276Z,928.82
2023-01-15T03:14:17.514Z,928.82
2023-01-15T03:14:48.459Z,928.82
2023-01-15T03:15:22.114Z,928.82
2023-01-15T03:15:50.410Z,928.82
2023-01-15T03:16:21.154Z,928.92
2023-01-15T03:16:53.360Z,928.92
2023-01-15T03:17:23.433Z,928.72
2023-01-15T03:17:54.516Z,928.72
2023-01-15T03:18:25.342Z,928.72
2023-01-15T03:18:56.397Z,928.72
2023-01-15T03:19:27.253Z,928.51
2023-01-15T03:19:58.376Z,928.51
2023-01-15T03:20:29.480Z,928.61
2023-01-15T03:21:00.612Z,928.61
2023-01-15T03:21:31.344Z,928.72
2023-01-15T03:22:03.592Z,928.72
2023-01-15T03:22:33.560Z,928.72
2023-01-15T03:23:04.595Z,928.72
2023-01-15T03:23:35.347Z,928.92
2023-01-15T03:24:06.275Z,928.92
2023-01-15T03:24:37.381Z,928.82
2023-01-15T03:25:08.320Z,928.82
2023-01-15T03:25:39.434Z,928.51
2023-01-15T03:26:10.218Z,928.51
2023-01-15T03:26:41.429Z,928.51
2023-01-15T03:27:13.436Z,928.61
2023-01-15T03:27:43.250Z,928.61
2023-01-15T03:28:14.432Z,928.61
2023-01-15T03:28:45.513Z,928.61
2023-01-15T03:29:16.429Z,928.41
2023-01-15T03:29:47.469Z,928.41
2023-01-15T03:30:21.444Z,928.61
2023-01-15T03:30:49.678Z,928.61
2023-01-15T03:31:20.387Z,928.41
2023-01-15T03:31:51.349Z,928.41
2023-01-15T03:32:23.331Z,928.72
2023-01-15T03:32:53.336Z,928.72
2023-01-15T03:33:24.458Z,928.72
2023-01-15T03:33:55.269Z,928.72
2023-01-15T03:34:26.411Z,928.92
2023-01-15T03:34:57.238Z,928.92
2023-01-15T03:35:28.289Z,928.92
2023-01-15T03:35:59.214Z,928.92
2023-01-15T03:36:30.837Z,928.72
2023-01-15T03:37:01.400Z,928.72
2023-01-15T03:37:33.614Z,928.72
2023-01-15T03:38:03.384Z,928.72
2023-01-15T03:38:34.532Z,928.61
2023-01-15T03:39:05.285Z,928.61
2023-01-15T03:39:36.273Z,928.82
2023-01-15T03:40:07.387Z,928.82
2023-01-15T03:40:38.237Z,928.92
2023-01-15T03:41:09.812Z,928.82
2023-01-15T03:41:40.311Z,928.82
2023-01-15T03:42:11.411Z,928.92
2023-01-15T03:42:43.384Z,928.92
2023-01-15T03:43:13.321Z,928.82
2023-01-15T03:43:44.330Z,928.82
2023-01-15T03:44:15.559Z,929.02
2023-01-15T03:44:46.439Z,929.02
2023-01-15T03:45:20.070Z,929.02
2023-01-15T03:45:48.467Z,929.02
2023-01-15T03:46:19.505Z,929.02
2023-01-15T03:46:50.429Z,929.02
2023-01-15T03:47:21.263Z,928.82
2023-01-15T03:47:53.267Z,928.82
2023-01-15T03:48:23.361Z,928.82
2023-01-15T03:48:54.488Z,928.82
2023-01-15T03:49:25.399Z,928.92
2023-01-15T03:49:56.343Z,928.92
2023-01-15T03:50:27.241Z,928.72
2023-01-15T03:50:58.401Z,928.72
2023-01-15T03:51:29.366Z,928.61
2023-01-15T03:52:00.630Z,928.61
2023-01-15T03:52:31.355Z,928.92
2023-01-15T03:53:03.265Z,928.92
2023-01-15T03:53:33.615Z,928.82
2023-01-15T03:54:04.628Z,928.82
2023-01-15T03:54:35.324Z,928.92
2023-01-15T03:55:06.310Z,928.92
2023-01-15T03:55:37.328Z,929.12
2023-01-15T03:56:08.532Z,929.12
2023-01-15T03:56:39.485Z,929.02
2023-01-15T03:57:10.529Z,928.82
2023-01-15T03:57:41.415Z,928.82
2023-01-15T03:58:13.406Z,928.82
2023-01-15T03:58:43.514Z,928.82
2023-01-15T03:59:14.329Z,928.82
2023-01-15T03:59:45.431Z,928.82
2023-01-15T04:00:19.367Z,928.82
2023-01-15T04:00:47.403Z,928.82
2023-01-15T04:01:18.498Z,928.82
2023-01-15T04:01:49.586Z,928.82
2023-01-15T04:02:20.354Z,928.82
2023-01-15T04:02:51.327Z,928.82
2023-01-15T04:03:23.750Z,928.82
2023-01-15T04:03:53.381Z,928.82
2023-01-15T04:04:24.510Z,928.72
2023-01-15T04:04:55.559Z,928.72
2023-01-15T04:05:26.834Z,928.82
2023-01-15T04:05:57.322Z,928.82
2023-01-15T04:06:28.419Z,928.72
2023-01-15T04:06:59.468Z,928.72
2023-01-15T04:07:30.493Z,928.82
2023-01-15T04:08:01.499Z,928.82
2023-01-15T04:08:33.234Z,929.22
2023-01-15T04:09:03.574Z,929.22
2023-01-15T04:09:34.235Z,928.92
2023-01-15T04:10:05.338Z,928.92
2023-01-15T04:10:36.284Z,928.82
2023-01-15T04:11:07.300Z,928.82
2023-01-15T04:11:38.392Z,928.92
2023-01-15T04:12:09.685Z,928.92
2023-01-15T04:12:40.266Z,928.92
2023-01-15T04:13:11.329Z,928.92
2023-01-15T04:13:43.310Z,928.92
2023-01-15T04:14:13.393Z,928.82
2023-01-15T04:14:44.440Z,928.82
2023-01-15T04:15:18.205Z,928.92
2023-01-15T04:15:46.517Z,928.92
2023-01-15T04:16:17.497Z,928.72
2023-01-15T04:16:48.472Z,928.72
2023-01-15T04:17:19.278Z,928.72
2023-01-15T04:17:50.373Z,928.72
2023-01-15T04:18:21.286Z,928.72
2023-01-15T04:18:53.400Z,928.72
2023-01-15T04:19:23.428Z,928.51
2023-01-15T04:19:54.402Z,928.51
2023-01-15T04:20:25.439Z,928.61
2023-01-15T04:20:56.502Z,928.61
2023-01-15T04:21:27.410Z,928.41
2023-01-15T04:21:58.344Z,928.41
2023-01-15T04:22:29.420Z,928.51
2023-01-15T04:23:00.401Z,928.51
2023-01-15T04:23:31.659Z,928.61
2023-01-15T04:24:03.407Z,928.61
2023-01-15T04:24:33.433Z,928.72
2023-01-15T04:25:04.405Z,928.72
2023-01-15T04:25:35.684Z,928.72
2023-01-15T04:26:06.335Z,928.72
2023-01-15T04:26:37.183Z,928.61
2023-01-15T04:29:43.457Z,928.31
2023-01-15T04:30:17.270Z,928.51
2023-01-15T04:30:45.492Z,928.51
2023-01-15T04:31:16.574Z,928.51
2023-01-15T04:31:47.578Z,928.51
2023-01-15T04:32:18.794Z,928.51
2023-01-15T04:32:49.596Z,928.51
2023-01-15T04:33:20.418Z,928.72
2023-01-15T04:33:51.314Z,928.72
2023-01-15T04:34:23.507Z,928.72
2023-01-15T04:34:53.544Z,928.72
2023-01-15T04:35:24.573Z,928.61
2023-01-15T04:35:55.633Z,928.61
2023-01-15T04:36:26.623Z,928.61
2023-01-15T04:36:57.502Z,928.61
2023-01-15T04:37:28.631Z,928.61
2023-01-15T04:37:59.368Z,928.61
2023-01-15T04:38:30.503Z,928.41
2023-01-15T04:39:01.384Z,928.41
2023-01-15T04:39:33.415Z,928.72
2023-01-15T04:40:03.309Z,928.72
2023-01-15T04:40:34.228Z,928.31
2023-01-15T04:41:05.314Z,928.31
2023-01-15T04:41:36.330Z,928.41
2023-01-15T04:42:07.446Z,928.41
2023-01-15T04:42:38.533Z,928.41
2023-01-15T04:43:09.414Z,928.31
2023-01-15T04:43:40.400Z,928.31
2023-01-15T04:44:11.581Z,928.61
2023-01-15T04:44:43.206Z,928.61
2023-01-15T04:45:16.249Z,928.41
2023-01-15T04:45:44.549Z,928.41
2023-01-15T04:46:15.489Z,928.31
2023-01-15T04:46:46.401Z,928.31
2023-01-15T04:47:17.309Z,928.41
2023-01-15T04:47:48.578Z,928.41
2023-01-15T04:48:19.430Z,928.21
2023-01-15T04:48:50.442Z,928.21
2023-01-15T04:49:21.316Z,928.41
2023-01-15T04:49:53.379Z,928.41
2023-01-15T04:50:23.409Z,928.31
2023-01-15T04:50:54.658Z,928.31
2023-01-15T04:51:25.495Z,928.41
2023-01-15T04:51:56.435Z,928.41
2023-01-15T04:52:27.336Z,928.41
2023-01-15T04:52:58.224Z,928.41
2023-01-15T04:53:29.438Z,928.21
2023-01-15T04:54:00.532Z,928.21
2023-01-15T04:54:31.168Z,928.41
2023-01-15T04:55:03.480Z,928.41
2023-01-15T04:55:33.541Z,928.51
2023-01-15T04:56:04.546Z,928.51
2023-01-15T04:56:35.453Z,928.41
2023-01-15T04:57:06.372Z,928.41
2023-01-15T04:57:37.584Z,928.31
2023-01-15T04:58:08.686Z,928.31
2023-01-15T04:58:39.519Z,928.31
2023-01-15T04:59:10.497Z,928.31
2023-01-15T04:59:41.546Z,928.31
2023-01-15T05:00:16.274Z,928.21
2023-01-15T05:00:43.610Z,928.21
2023-01-15T05:01:14.498Z,928.51
2023-01-15T05:02:02.071Z,928.51
2023-01-15T05:02:16.272Z,928.41
2023-01-15T05:02:47.559Z,928.41
2023-01-15T05:03:18.351Z,928.21
2023-01-15T05:03:49.336Z,928.21
2023-01-15T05:04:20.488Z,928.31
2023-01-15T05:04:51.418Z,928.31
2023-01-15T05:05:23.619Z,928.21
2023-01-15T05:05:53.673Z,928.21
2023-01-15T05:06:24.441Z,928.41
2023-01-15T05:06:55.531Z,928.41
2023-01-15T05:07:26.643Z,928.41
2023-01-15T05:07:57.628Z,928.41
2023-01-15T05:08:28.356Z,928.51
2023-01-15T05:08:59.401Z,928.51
2023-01-15T05:09:30.611Z,928.51
2023-01-15T05:10:01.458Z,928.51
2023-01-15T05:10:33.620Z,928.51
2023-01-15T05:11:03.453Z,928.51
2023-01-15T05:11:34.505Z,928.41
2023-01-15T05:12:05.618Z,928.41
2023-01-15T05:12:36.394Z,928.21
2023-01-15T05:13:07.378Z,928.21
2023-01-15T05:13:38.444Z,928.31
2023-01-15T05:14:09.477Z,928.41
2023-01-15T05:14:40.508Z,928.41
2023-01-15T05:15:14.300Z,928.51
2023-01-15T05:15:43.449Z,928.51
2023-01-15T05:16:13.713Z,928.31
2023-01-15T05:16:44.589Z,928.31
2023-01-15T05:17:15.601Z,928.61
2023-01-15T05:17:46.300Z,928.61
2023-01-15T05:18:17.388Z,928.51
2023-01-15T05:18:48.213Z,928.51
2023-01-15T05:19:19.300Z,928.41
2023-01-15T05:19:50.310Z,928.41
2023-01-15T05:20:21.385Z,928.41
2023-01-15T05:20:53.488Z,928.41
2023-01-15T05:21:23.570Z,928.51
2023-01-15T05:21:54.492Z,928.51
2023-01-15T05:22:25.281Z,928.31
2023-01-15T05:22:56.519Z,928.31
2023-01-15T05:23:27.331Z,928.31
2023-01-15T05:23:58.615Z,928.31
2023-01-15T05:24:29.374Z,928.41
2023-01-15T05:25:00.270Z,928.41
2023-01-15T05:25:31.547Z,928.41
2023-01-15T05:26:03.813Z,928.41
2023-01-15T05:26:33.516Z,928.31
2023-01-15T05:27:04.293Z,928.31
2023-01-15T05:27:35.513Z,928.31
2023-01-15T05:28:06.492Z,928.31
2023-01-15T05:28:37.507Z,928.51
2023-01-15T05:29:08.339Z,928.51
2023-01-15T05:29:39.471Z,928.31
2023-01-15T05:30:13.642Z,928.41
2023-01-15T05:30:41.634Z,928.41
2023-01-15T05:31:13.668Z,928.31
2023-01-15T05:31:43.448Z,928.31
2023-01-15T05:32:14.534Z,928.41
2023-01-15T05:32:45.576Z,928.41
2023-01-15T05:33:16.515Z,928.41
2023-01-15T05:33:47.656Z,928.41
2023-01-15T05:34:18.665Z,928.21
2023-01-15T05:34:49.693Z,928.21
2023-01-15T05:35:20.589Z,928.41
2023-01-15T05:35:51.558Z,928.41
2023-01-15T05:36:23.423Z,928.51
2023-01-15T05:36:53.459Z,928.51
2023-01-15T05:37:24.578Z,928.51
2023-01-15T05:37:55.623Z,928.51
2023-01-15T05:38:26.607Z,928.41
2023-01-15T05:38:57.559Z,928.41
2023-01-15T05:39:28.657Z,928.41
2023-01-15T05:39:59.614Z,928.41
2023-01-15T05:40:30.694Z,928.11
2023-01-15T05:41:01.226Z,928.11
2023-01-15T05:41:33.519Z,928.41
2023-01-15T05:42:03.526Z,928.41
2023-01-15T05:42:34.684Z,928.41
2023-01-15T05:43:05.599Z,928.41
2023-01-15T05:43:36.423Z,928.51
2023-01-15T05:44:07.401Z,928.51
2023-01-15T05:44:38.393Z,928.31
2023-01-15T05:45:12.261Z,928.41
2023-01-15T05:45:40.323Z,928.41
2023-01-15T05:46:11.571Z,928.41
2023-01-15T05:46:43.591Z,928.41
2023-01-15T05:47:13.569Z,928.31
2023-01-15T05:47:44.431Z,928.31
2023-01-15T05:48:15.755Z,928.21
2023-01-15T05:48:46.327Z,928.21
2023-01-15T05:49:17.555Z,928.41
2023-01-15T05:49:48.638Z,928.41
2023-01-15T05:50:19.534Z,928.31
2023-01-15T05:50:50.487Z,928.31
2023-01-15T05:51:21.403Z,928.41
2023-01-15T05:51:53.731Z,928.41
2023-01-15T05:52:23.492Z,928.31
2023-01-15T05:52:54.460Z,928.31
2023-01-15T05:53:25.441Z,928.41
2023-01-15T05:53:56.519Z,928.41
2023-01-15T05:54:27.453Z,928.72
2023-01-15T05:54:58.365Z,928.72
2023-01-15T05:55:29.465Z,928.31
2023-01-15T05:56:00.529Z,928.31
2023-01-15T05:56:31.332Z,928.51
2023-01-15T05:57:03.615Z,928.51
2023-01-15T05:57:33.573Z,928.41
2023-01-15T05:58:04.861Z,928.41
2023-01-15T05:58:35.737Z,928.41
2023-01-15T05:59:06.625Z,928.41
2023-01-15T05:59:37.738Z,928.41
2023-01-15T06:00:11.336Z,928.41
2023-01-15T06:00:39.845Z,928.51
2023-01-15T06:01:10.809Z,928.31
2023-01-15T06:01:41.386Z,928.31
2023-01-15T06:02:13.574Z,928.41
2023-01-15T06:02:43.766Z,928.41
2023-01-15T06:03:14.631Z,928.41
2023-01-15T06:03:45.542Z,928.41
2023-01-15T06:04:16.524Z,928.21
2023-01-15T06:04:47.566Z,928.21
2023-01-15T06:05:18.570Z,928.31
2023-01-15T06:05:49.728Z,928.31
2023-01-15T06:06:20.346Z,928.31
2023-01-15T06:06:51.563Z,928.31
2023-01-15T06:07:23.482Z,928.31
2023-01-15T06:07:53.540Z,928.31
2023-01-15T06:08:24.760Z,928.41
2023-01-15T06:08:55.543Z,928.41
2023-01-15T06:09:26.576Z,928.41
2023-01-15T06:09:57.507Z,928.41
2023-01-15T06:10:28.757Z,928.41
2023-01-15T06:10:59.403Z,928.41
2023-01-15T06:11:30.373Z,928.41
2023-01-15T06:12:01.281Z,928.41
2023-01-15T06:12:33.481Z,928.41
2023-01-15T06:13:03.547Z,928.41
2023-01-15T06:13:34.332Z,928.41
2023-01-15T06:14:05.777Z,928.41
2023-01-15T06:14:36.571Z,928.51
2023-01-15T06:15:10.411Z,928.51
2023-01-15T06:15:38.573Z,928.31
2023-01-15T06:16:09.719Z,928.41
2023-01-15T06:16:41.315Z,928.41
2023-01-15T06:17:11.530Z,928.41
2023-01-15T06:17:43.333Z,928.41
2023-01-15T06:18:13.366Z,928.72
2023-01-15T06:18:44.704Z,928.72
2023-01-15T06:19:15.674Z,928.41
2023-01-15T06:19:46.582Z,928.41
2023-01-15T06:20:17.728Z,928.61
2023-01-15T06:20:48.655Z,928.61
2023-01-15T06:21:19.763Z,928.61
2023-01-15T06:21:50.631Z,928.61
2023-01-15T06:22:21.689Z,928.51
2023-01-15T06:22:53.565Z,928.51
2023-01-15T06:23:23.568Z,928.51
2023-01-15T06:23:54.595Z,928.51
2023-01-15T06:24:25.643Z,928.41
2023-01-15T06:24:56.672Z,928.41
2023-01-15T06:25:27.474Z,928.51
2023-01-15T06:25:58.526Z,928.51
2023-01-15T06:26:29.765Z,928.51
2023-01-15T06:27:00.582Z,928.51
2023-01-15T06:27:31.311Z,928.31
2023-01-15T06:28:03.630Z,928.31
2023-01-15T06:28:33.660Z,928.41
2023-01-15T06:29:04.648Z,928.41
2023-01-15T06:29:35.300Z,928.72
2023-01-15T06:30:09.264Z,928.72